createdAt,value
2023-04-04T00:00:24.663Z,102674.81
2023-04-04T00:02:51.675Z,102683.25
2023-04-04T00:05:18.889Z,102683.25
2023-04-04T00:07:48.140Z,102675.00
2023-04-04T00:10:15.527Z,102673.09
2023-04-04T00:12:43.027Z,102674.13
2023-04-04T00:15:09.928Z,102674.16
2023-04-04T00:17:36.343Z,102673.97
2023-04-04T00:20:04.350Z,102678.47
2023-04-04T00:22:31.475Z,102678.09
2023-04-04T00:24:58.006Z,102668.78
2023-04-04T00:27:24.424Z,102667.72
2023-04-04T00:29:50.821Z,102671.91
2023-04-04T00:32:17.262Z,102671.22
2023-04-04T00:34:43.658Z,102672.41
2023-04-04T00:37:13.042Z,102672.41
2023-04-04T00:39:40.335Z,102671.56
2023-04-04T00:42:07.316Z,102671.91
2023-04-04T00:44:35.708Z,102669.50
2023-04-04T00:47:04.120Z,102673.66
2023-04-04T00:49:30.558Z,102667.13
2023-04-04T00:51:57.931Z,102668.69
2023-04-04T00:54:24.399Z,102670.25
2023-04-04T00:56:55.216Z,102667.66
2023-04-04T00:59:27.771Z,102662.50
2023-04-04T01:01:54.574Z,102662.50
2023-04-04T01:04:21.200Z,102666.97
2023-04-04T01:06:48.869Z,102666.63
2023-04-04T01:09:15.664Z,102654.09
2023-04-04T01:11:43.986Z,102656.84
2023-04-04T01:14:10.485Z,102651.50
2023-04-04T01:16:37.028Z,102649.44
2023-04-04T01:19:34.790Z,102648.75
2023-04-04T01:22:06.637Z,102656.31
2023-04-04T01:24:34.126Z,102650.31
2023-04-04T01:27:03.169Z,102657.72
2023-04-04T01:29:29.580Z,102647.41
2023-04-04T01:32:08.393Z,102660.50
2023-04-04T01:34:47.232Z,102645.16
2023-04-04T01:37:23.208Z,102649.97
2023-04-04T01:39:56.358Z,102654.97
2023-04-04T01:42:24.295Z,102654.63
2023-04-04T01:44:56.987Z,102648.97
2023-04-04T01:47:29.243Z,102643.97
2023-04-04T01:49:55.725Z,102643.13
2023-04-04T01:52:22.896Z,102641.72
2023-04-04T01:54:49.297Z,102635.69
2023-04-04T01:57:15.765Z,102631.75
2023-04-04T01:59:42.963Z,102638.97
2023-04-04T02:02:10.719Z,102631.41
2023-04-04T02:04:37.508Z,102629.16
2023-04-04T02:07:04.497Z,102626.59
2023-04-04T02:09:31.389Z,102627.94
2023-04-04T02:11:57.775Z,102620.38
2023-04-04T02:14:24.316Z,102627.94
2023-04-04T02:16:51.655Z,102616.94
2023-04-04T02:19:18.732Z,102626.94
2023-04-04T02:21:45.208Z,102626.41
2023-04-04T02:24:11.650Z,102621.22
2023-04-04T02:26:38.946Z,102628.97
2023-04-04T02:29:06.262Z,102616.25
2023-04-04T02:31:32.784Z,102619.66
2023-04-04T02:33:59.240Z,102622.41
2023-04-04T02:36:25.643Z,102618.47
2023-04-04T02:38:54.077Z,102614.16
2023-04-04T02:41:23.744Z,102608.13
2023-04-04T02:43:50.329Z,102605.22
2023-04-04T02:46:22.096Z,102613.84
2023-04-04T02:48:53.264Z,102597.47
2023-04-04T02:51:19.862Z,102599.53
2023-04-04T02:53:46.948Z,102601.44
2023-04-04T02:56:20.564Z,102595.22
2023-04-04T02:58:47.088Z,102585.97
2023-04-04T03:01:13.521Z,102592.47
2023-04-04T03:03:40.020Z,102587.13
2023-04-04T03:06:06.576Z,102591.78
2023-04-04T03:08:32.999Z,102585.41
2023-04-04T03:10:59.709Z,102590.56
2023-04-04T03:13:26.947Z,102578.53
2023-04-04T03:16:03.032Z,102576.13
2023-04-04T03:18:35.247Z,102579.56
2023-04-04T03:21:01.666Z,102580.59
2023-04-04T03:23:28.074Z,102582.66
2023-04-04T03:25:55.173Z,102578.34
2023-04-04T03:28:21.765Z,102570.25
2023-04-04T03:30:48.169Z,102573.88
2023-04-04T03:33:15.213Z,102569.56
2023-04-04T03:35:42.134Z,102560.47
2023-04-04T03:38:09.779Z,102567.66
2023-04-04T03:40:36.547Z,102569.03
2023-04-04T03:43:08.676Z,102568.50
2023-04-04T03:45:38.424Z,102564.03
2023-04-04T03:48:05.539Z,102559.91
2023-04-04T03:50:32.067Z,102558.34
2023-04-04T03:52:58.597Z,102553.53
2023-04-04T03:55:26.230Z,102556.09
2023-04-04T03:57:57.383Z,102555.25
2023-04-04T04:00:23.973Z,102549.56
2023-04-04T04:02:50.393Z,102552.47
2023-04-04T04:05:18.929Z,102541.66
2023-04-04T04:07:45.631Z,102547.31
2023-04-04T04:10:14.158Z,102535.97
2023-04-04T04:12:40.700Z,102541.66
2023-04-04T04:15:07.862Z,102542.88
2023-04-04T04:17:34.801Z,102543.16
2023-04-04T04:20:01.408Z,102543.88
2023-04-04T04:22:36.162Z,102541.13
2023-04-04T04:25:03.131Z,102542.50
2023-04-04T04:27:30.926Z,102540.72
2023-04-04T04:29:57.498Z,102551.56
2023-04-04T04:32:26.493Z,102550.53
2023-04-04T04:34:53.877Z,102555.16
2023-04-04T04:37:26.261Z,102554.47
2023-04-04T04:39:55.403Z,102554.81
2023-04-04T04:42:44.254Z,102558.25
2023-04-04T04:45:10.926Z,102562.00
2023-04-04T04:47:40.117Z,102561.66
2023-04-04T04:50:08.803Z,102559.06
2023-04-04T04:52:40.181Z,102565.44
2023-04-04T04:55:07.408Z,102573.97
2023-04-04T04:57:38.203Z,102569.50
2023-04-04T05:00:12.586Z,102568.09
2023-04-04T05:02:39.108Z,102576.16
2023-04-04T05:05:06.389Z,102577.91
2023-04-04T05:07:33.830Z,102584.94
2023-04-04T05:10:00.402Z,102572.72
2023-04-04T05:12:27.123Z,102574.84
2023-04-04T05:14:54.798Z,102575.06
2023-04-04T05:17:22.972Z,102578.38
2023-04-04T05:19:51.728Z,102575.31
2023-04-04T05:22:21.139Z,102578.25
2023-04-04T05:24:51.233Z,102581.91
2023-04-04T05:27:21.653Z,102587.06
2023-04-04T05:29:54.289Z,102589.00
2023-04-04T05:32:21.819Z,102591.06
2023-04-04T05:34:57.167Z,102588.50
2023-04-04T05:37:23.562Z,102591.25
2023-04-04T05:39:50.001Z,102593.16
2023-04-04T05:42:17.691Z,102591.81
2023-04-04T05:44:49.069Z,102594.22
2023-04-04T05:47:15.994Z,102580.13
2023-04-04T05:49:45.903Z,102590.59
2023-04-04T05:52:12.418Z,102587.69
2023-04-04T05:54:38.868Z,102584.41
2023-04-04T05:57:11.836Z,102593.50
2023-04-04T05:59:49.834Z,102586.06
2023-04-04T06:02:17.358Z,102592.44
2023-04-04T06:04:49.333Z,102597.19
2023-04-04T06:07:21.369Z,102598.81
2023-04-04T06:09:50.531Z,102595.16
2023-04-04T06:12:17.319Z,102587.31
2023-04-04T06:14:43.735Z,102591.81
2023-04-04T06:17:10.753Z,102592.75
2023-04-04T06:19:37.213Z,102605.25
2023-04-04T06:22:03.627Z,102602.03
2023-04-04T06:24:33.364Z,102602.03
2023-04-04T06:27:01.743Z,102597.66
2023-04-04T06:29:28.594Z,102595.44
2023-04-04T06:31:58.291Z,102605.19
2023-04-04T06:34:34.111Z,102599.75
2023-04-04T06:37:01.290Z,102593.63
2023-04-04T06:39:34.322Z,102597.94
2023-04-04T06:42:03.466Z,102605.91
2023-04-04T06:44:32.673Z,102597.00
2023-04-04T06:46:59.143Z,102599.81
2023-04-04T06:49:25.643Z,102600.91
2023-04-04T06:51:52.599Z,102594.16
2023-04-04T06:54:19.698Z,102593.09
2023-04-04T06:56:46.119Z,102591.78
2023-04-04T06:59:12.981Z,102594.38
2023-04-04T07:01:39.505Z,102598.44
2023-04-04T07:04:05.937Z,102600.94
2023-04-04T07:06:32.331Z,102600.28
2023-04-04T07:08:58.839Z,102592.66
2023-04-04T07:11:25.384Z,102591.38
2023-04-04T07:13:51.787Z,102588.19
2023-04-04T07:16:18.186Z,102583.72
2023-04-04T07:18:44.577Z,102578.69
2023-04-04T07:21:10.967Z,102580.03
2023-04-04T07:23:37.369Z,102577.34
2023-04-04T07:26:03.782Z,102579.81
2023-04-04T07:28:30.211Z,102576.00
2023-04-04T07:31:00.724Z,102573.09
2023-04-04T07:33:27.700Z,102577.38
2023-04-04T07:35:54.635Z,102564.31
2023-04-04T07:38:21.064Z,102571.63
2023-04-04T07:40:50.505Z,102567.78
2023-04-04T07:43:17.209Z,102572.28
2023-04-04T07:45:43.688Z,102570.13
2023-04-04T07:48:10.211Z,102557.72
2023-04-04T07:50:36.670Z,102557.94
2023-04-04T07:53:03.104Z,102556.03
2023-04-04T07:55:29.599Z,102551.72
2023-04-04T07:57:56.240Z,102549.38
2023-04-04T08:00:25.718Z,102550.88
2023-04-04T08:02:56.231Z,102548.97
2023-04-04T08:05:23.508Z,102554.50
2023-04-04T08:07:49.922Z,102548.97
2023-04-04T08:10:20.728Z,102544.66
2023-04-04T08:12:48.055Z,102540.50
2023-04-04T08:15:16.314Z,102547.34
2023-04-04T08:17:45.341Z,102545.56
2023-04-04T08:20:12.435Z,102543.59
2023-04-04T08:22:40.841Z,102544.66
2023-04-04T08:25:07.563Z,102545.91
2023-04-04T08:27:34.110Z,102547.84
2023-04-04T08:30:00.541Z,102549.56
2023-04-04T08:32:26.974Z,102549.34
2023-04-04T08:34:53.398Z,102540.19
2023-04-04T08:37:19.790Z,102544.44
2023-04-04T08:39:46.187Z,102544.41
2023-04-04T08:42:16.787Z,102536.75
2023-04-04T08:44:45.678Z,102541.00
2023-04-04T08:47:13.437Z,102535.41
2023-04-04T08:49:44.030Z,102533.25
2023-04-04T08:52:12.765Z,102533.72
2023-04-04T08:54:40.668Z,102525.53
2023-04-04T08:57:08.251Z,102524.53
2023-04-04T08:59:34.966Z,102523.22
2023-04-04T09:02:15.867Z,102526.72
2023-04-04T09:04:48.834Z,102529.81
2023-04-04T09:07:22.744Z,102525.03
2023-04-04T09:09:50.518Z,102518.31
2023-04-04T09:12:17.212Z,102521.75
2023-04-04T09:14:44.443Z,102518.59
2023-04-04T09:17:10.953Z,102517.50
2023-04-04T09:19:37.804Z,102516.19
2023-04-04T09:22:07.886Z,102514.44
2023-04-04T09:24:42.058Z,102526.47
2023-04-04T09:27:13.181Z,102523.00
2023-04-04T09:29:40.877Z,102523.00
2023-04-04T09:32:09.146Z,102521.88
2023-04-04T09:34:36.469Z,102516.44
2023-04-04T09:37:05.199Z,102512.75
2023-04-04T09:39:33.410Z,102510.56
2023-04-04T09:42:01.211Z,102504.13
2023-04-04T09:44:33.243Z,102502.72
2023-04-04T09:47:30.636Z,102503.16
2023-04-04T09:50:02.873Z,102498.06
2023-04-04T09:52:33.873Z,102501.69
2023-04-04T09:55:01.495Z,102501.78
2023-04-04T09:57:37.993Z,102499.03
2023-04-04T10:00:09.440Z,102499.22
2023-04-04T10:02:46.903Z,102499.63
2023-04-04T10:05:14.233Z,102496.84
2023-04-04T10:07:42.296Z,102496.13
2023-04-04T10:10:11.698Z,102495.91
2023-04-04T10:12:38.733Z,102492.69
2023-04-04T10:15:05.548Z,102492.41
2023-04-04T10:17:38.314Z,102489.41
2023-04-04T10:20:06.681Z,102488.66
2023-04-04T10:22:33.881Z,102482.16
2023-04-04T10:25:00.556Z,102487.94
2023-04-04T10:27:27.346Z,102481.53
2023-04-04T10:29:53.892Z,102484.88
2023-04-04T10:32:26.650Z,102483.34
2023-04-04T10:35:02.734Z,102479.66
2023-04-04T10:37:34.840Z,102480.09
2023-04-04T10:40:06.742Z,102472.38
2023-04-04T10:42:39.968Z,102474.28
2023-04-04T10:45:20.359Z,102474.81
2023-04-04T10:47:48.339Z,102468.94
2023-04-04T10:50:15.214Z,102469.22
2023-04-04T10:52:44.495Z,102462.13
2023-04-04T10:55:12.961Z,102456.66
2023-04-04T10:57:44.710Z,102454.72
2023-04-04T11:00:13.074Z,102457.69
2023-04-04T11:02:54.389Z,102448.72
2023-04-04T11:05:47.146Z,102448.38
2023-04-04T11:08:24.937Z,102449.31
2023-04-04T11:10:53.462Z,102446.19
2023-04-04T11:13:35.681Z,102442.41
2023-04-04T11:16:15.086Z,102435.09
2023-04-04T11:18:41.576Z,102436.09
2023-04-04T11:21:10.082Z,102433.19
2023-04-04T11:23:48.658Z,102428.59
2023-04-04T11:26:30.618Z,102425.38
2023-04-04T11:29:02.096Z,102421.25
2023-04-04T11:31:32.562Z,102419.38
2023-04-04T11:34:12.240Z,102424.31
2023-04-04T11:36:42.993Z,102424.53
2023-04-04T11:39:30.271Z,102413.53
2023-04-04T11:42:06.803Z,102412.16
2023-04-04T11:44:39.704Z,102410.28
2023-04-04T11:47:06.034Z,102404.72
2023-04-04T11:49:37.776Z,102401.00
2023-04-04T11:52:09.920Z,102395.28
2023-04-04T11:54:37.694Z,102387.31
2023-04-04T11:57:06.740Z,102394.47
2023-04-04T11:59:33.254Z,102385.28
2023-04-04T12:02:00.393Z,102390.31
2023-04-04T12:04:27.558Z,102388.16
2023-04-04T12:06:56.517Z,102391.41
2023-04-04T12:09:25.732Z,102382.91
2023-04-04T12:11:52.650Z,102380.72
2023-04-04T12:14:20.844Z,102370.41
2023-04-04T12:16:52.402Z,102367.03
2023-04-04T12:19:18.874Z,102374.16
2023-04-04T12:21:49.048Z,102365.72
2023-04-04T12:24:15.806Z,102362.84
2023-04-04T12:26:44.633Z,102362.09
2023-04-04T12:29:13.734Z,102362.59
2023-04-04T12:31:42.968Z,102359.06
2023-04-04T12:34:33.473Z,102358.03
2023-04-04T12:37:01.740Z,102351.50
2023-04-04T12:39:29.789Z,102344.50
2023-04-04T12:42:03.658Z,102351.91
2023-04-04T12:44:34.404Z,102330.50
2023-04-04T12:47:04.623Z,102329.63
2023-04-04T12:49:35.440Z,102323.94
2023-04-04T12:52:05.206Z,102323.94
2023-04-04T12:54:32.797Z,102320.13
2023-04-04T12:57:04.171Z,102323.59
2023-04-04T12:59:32.760Z,102316.91
2023-04-04T13:02:02.602Z,102319.41
2023-04-04T13:04:29.193Z,102309.56
2023-04-04T13:06:55.667Z,102295.47
2023-04-04T13:09:23.356Z,102303.56
2023-04-04T13:11:57.142Z,102296.31
2023-04-04T13:14:23.539Z,102283.91
2023-04-04T13:17:05.447Z,102290.75
2023-04-04T13:19:32.203Z,102291.50
2023-04-04T13:22:00.227Z,102285.66
2023-04-04T13:24:26.611Z,102291.34
2023-04-04T13:26:53.056Z,102290.34
2023-04-04T13:29:19.612Z,102288.31
2023-04-04T13:31:46.017Z,102276.88
2023-04-04T13:34:12.431Z,102267.03
2023-04-04T13:36:38.848Z,102268.84
2023-04-04T13:39:05.323Z,102270.09
2023-04-04T13:41:31.741Z,102275.94
2023-04-04T13:43:58.137Z,102265.69
2023-04-04T13:46:24.572Z,102268.69
2023-04-04T13:48:51.007Z,102260.47
2023-04-04T13:51:17.467Z,102264.63
2023-04-04T13:53:47.102Z,102251.97
2023-04-04T13:56:18.341Z,102247.13
2023-04-04T13:58:45.725Z,102245.03
2023-04-04T14:01:12.369Z,102248.06
2023-04-04T14:03:38.826Z,102242.28
2023-04-04T14:06:10.409Z,102229.34
2023-04-04T14:08:37.416Z,102237.44
2023-04-04T14:11:04.108Z,102229.31
2023-04-04T14:13:32.541Z,102237.47
2023-04-04T14:15:58.980Z,102229.34
2023-04-04T14:18:25.636Z,102221.94
2023-04-04T14:20:52.065Z,102227.28
2023-04-04T14:23:18.463Z,102230.94
2023-04-04T14:25:45.113Z,102218.38
2023-04-04T14:28:11.864Z,102220.06
2023-04-04T14:30:38.311Z,102213.56
2023-04-04T14:33:04.761Z,102223.50
2023-04-04T14:35:31.204Z,102219.13
2023-04-04T14:37:57.606Z,102215.25
2023-04-04T14:40:23.990Z,102214.50
2023-04-04T14:42:50.564Z,102212.94
2023-04-04T14:45:17.588Z,102217.81
2023-04-04T14:47:44.053Z,102213.19
2023-04-04T14:50:10.558Z,102201.88
2023-04-04T14:52:37.027Z,102212.22
2023-04-04T14:55:03.750Z,102204.81
2023-04-04T14:57:32.131Z,102202.25
2023-04-04T15:00:02.238Z,102202.47
2023-04-04T15:02:28.862Z,102202.13
2023-04-04T15:04:55.321Z,102200.91
2023-04-04T15:07:24.181Z,102198.03
2023-04-04T15:09:50.633Z,102196.00
2023-04-04T15:12:17.088Z,102196.34
2023-04-04T15:14:43.468Z,102186.91
2023-04-04T15:17:09.888Z,102193.72
2023-04-04T15:19:36.984Z,102190.06
2023-04-04T15:22:04.662Z,102189.56
2023-04-04T15:24:31.065Z,102192.56
2023-04-04T15:26:57.848Z,102193.03
2023-04-04T15:29:24.381Z,102182.25
2023-04-04T15:31:50.903Z,102178.06
2023-04-04T15:34:17.349Z,102178.66
2023-04-04T15:36:44.213Z,102179.97
2023-04-04T15:39:11.884Z,102178.75
2023-04-04T15:41:38.303Z,102188.41
2023-04-04T15:44:05.336Z,102181.22
2023-04-04T15:46:31.853Z,102181.97
2023-04-04T15:48:58.316Z,102182.28
2023-04-04T15:51:25.731Z,102178.13
2023-04-04T15:53:55.770Z,102180.56
2023-04-04T15:56:22.487Z,102172.00
2023-04-04T15:58:49.005Z,102182.16
2023-04-04T16:01:15.472Z,102170.72
2023-04-04T16:03:43.015Z,102177.34
2023-04-04T16:06:12.898Z,102170.28
2023-04-04T16:08:42.032Z,102174.25
2023-04-04T16:11:08.519Z,102178.34
2023-04-04T16:13:34.936Z,102166.81
2023-04-04T16:16:01.392Z,102175.97
2023-04-04T16:18:28.008Z,102169.31
2023-04-04T16:20:54.401Z,102168.03
2023-04-04T16:23:21.539Z,102169.31
2023-04-04T16:25:47.956Z,102171.41
2023-04-04T16:28:14.349Z,102175.03
2023-04-04T16:30:40.853Z,102173.78
2023-04-04T16:33:07.420Z,102168.91
2023-04-04T16:35:34.560Z,102167.41
2023-04-04T16:38:00.975Z,102165.56
2023-04-04T16:40:27.401Z,102153.16
2023-04-04T16:42:53.803Z,102156.59
2023-04-04T16:45:21.584Z,102157.06
2023-04-04T16:47:48.067Z,102154.16
2023-04-04T16:50:14.514Z,102156.06
2023-04-04T16:52:40.947Z,102155.72
2023-04-04T16:55:08.690Z,102155.59
2023-04-04T16:57:35.266Z,102150.94
2023-04-04T17:00:01.664Z,102148.16
2023-04-04T17:02:28.076Z,102150.16
2023-04-04T17:04:54.479Z,102139.94
2023-04-04T17:07:21.100Z,102140.78
2023-04-04T17:09:48.795Z,102137.56
2023-04-04T17:12:15.465Z,102141.84
2023-04-04T17:14:41.911Z,102142.84
2023-04-04T17:17:08.768Z,102139.75
2023-04-04T17:19:35.712Z,102141.28
2023-04-04T17:22:02.272Z,102139.50
2023-04-04T17:24:28.665Z,102148.78
2023-04-04T17:26:57.734Z,102136.31
2023-04-04T17:29:26.838Z,102139.44
2023-04-04T17:31:55.157Z,102137.78
2023-04-04T17:34:21.910Z,102137.72
2023-04-04T17:36:48.713Z,102130.59
2023-04-04T17:39:15.257Z,102129.75
2023-04-04T17:41:41.913Z,102133.00
2023-04-04T17:44:09.127Z,102134.59
2023-04-04T17:46:36.193Z,102127.09
2023-04-04T17:49:02.680Z,102133.22
2023-04-04T17:51:29.261Z,102126.38
2023-04-04T17:53:55.657Z,102136.84
2023-04-04T17:56:22.064Z,102132.25
2023-04-04T17:58:48.454Z,102132.72
2023-04-04T18:01:14.946Z,102134.88
2023-04-04T18:03:41.423Z,102134.56
2023-04-04T18:06:08.602Z,102143.84
2023-04-04T18:08:34.993Z,102131.06
2023-04-04T18:11:01.421Z,102134.38
2023-04-04T18:13:27.837Z,102137.00
2023-04-04T18:15:54.300Z,102138.38
2023-04-04T18:18:21.308Z,102135.41
2023-04-04T18:20:50.737Z,102139.09
2023-04-04T18:23:17.491Z,102136.81
2023-04-04T18:25:43.892Z,102142.56
2023-04-04T18:28:10.315Z,102143.41
2023-04-04T18:30:37.612Z,102141.72
2023-04-04T18:33:04.544Z,102146.00
2023-04-04T18:35:30.974Z,102139.94
2023-04-04T18:37:57.362Z,102138.47
2023-04-04T18:40:23.794Z,102143.00
2023-04-04T18:42:52.037Z,102140.22
2023-04-04T18:45:20.934Z,102141.50
2023-04-04T18:47:47.531Z,102144.56
2023-04-04T18:50:14.476Z,102145.44
2023-04-04T18:52:42.354Z,102148.66
2023-04-04T18:55:09.267Z,102151.00
2023-04-04T18:57:37.191Z,102148.69
2023-04-04T19:00:06.501Z,102147.97
2023-04-04T19:02:34.158Z,102149.53
2023-04-04T19:05:03.581Z,102148.78
2023-04-04T19:07:31.413Z,102148.38
2023-04-04T19:09:58.147Z,102147.50
2023-04-04T19:12:24.543Z,102146.03
2023-04-04T19:14:50.953Z,102151.81
2023-04-04T19:17:18.129Z,102152.91
2023-04-04T19:19:44.528Z,102142.44
2023-04-04T19:22:10.921Z,102141.16
2023-04-04T19:24:40.158Z,102145.22
2023-04-04T19:27:06.922Z,102138.16
2023-04-04T19:29:36.209Z,102147.63
2023-04-04T19:32:09.882Z,102148.28
2023-04-04T19:34:36.466Z,102146.53
2023-04-04T19:37:02.950Z,102138.69
2023-04-04T19:39:31.539Z,102139.56
2023-04-04T19:41:58.062Z,102142.13
2023-04-04T19:44:24.454Z,102139.16
2023-04-04T19:46:50.904Z,102132.75
2023-04-04T19:49:17.828Z,102136.78
2023-04-04T19:51:53.622Z,102136.81
2023-04-04T19:54:25.380Z,102136.16
2023-04-04T19:56:57.265Z,102132.97
2023-04-04T19:59:54.552Z,102133.19
2023-04-04T20:02:26.847Z,102132.56
2023-04-04T20:04:54.072Z,102138.34
2023-04-04T20:07:20.532Z,102140.06
2023-04-04T20:09:47.491Z,102137.06
2023-04-04T20:12:16.012Z,102132.16
2023-04-04T20:14:42.440Z,102137.69
2023-04-04T20:17:09.641Z,102141.94
2023-04-04T20:19:36.561Z,102139.81
2023-04-04T20:22:04.997Z,102146.41
2023-04-04T20:24:31.560Z,102140.84
2023-04-04T20:26:59.470Z,102130.81
2023-04-04T20:29:27.889Z,102135.06
2023-04-04T20:32:00.510Z,102139.09
2023-04-04T20:34:42.543Z,102152.09
2023-04-04T20:37:19.729Z,102139.22
2023-04-04T20:39:48.854Z,102139.88
2023-04-04T20:42:32.165Z,102139.66
2023-04-04T20:44:58.493Z,102144.22
2023-04-04T20:47:40.269Z,102136.34
2023-04-04T20:50:27.165Z,102146.19
2023-04-04T20:52:58.529Z,102152.50
2023-04-04T20:55:26.481Z,102150.31
2023-04-04T20:57:56.601Z,102148.81
2023-04-04T21:00:22.940Z,102159.47
2023-04-04T21:02:49.449Z,102156.44
2023-04-04T21:05:27.339Z,102150.69
2023-04-04T21:07:53.892Z,102151.75
2023-04-04T21:10:44.838Z,102150.66
2023-04-04T21:13:11.297Z,102154.72
2023-04-04T21:15:39.156Z,102151.06
2023-04-04T21:18:09.993Z,102154.63
2023-04-04T21:20:45.866Z,102146.97
2023-04-04T21:23:26.807Z,102144.38
2023-04-04T21:25:59.933Z,102144.38
2023-04-04T21:28:37.901Z,102141.97
2023-04-04T21:31:16.206Z,102135.94
2023-04-04T21:33:43.694Z,102134.69
2023-04-04T21:36:18.093Z,102136.19
2023-04-04T21:38:44.522Z,102134.13
2023-04-04T21:41:21.564Z,102136.00
2023-04-04T21:43:47.949Z,102132.31
2023-04-04T21:46:14.398Z,102136.56
2023-04-04T21:48:40.849Z,102130.50
2023-04-04T21:51:07.237Z,102131.31
2023-04-04T21:53:33.709Z,102134.84
2023-04-04T21:56:00.269Z,102126.97
2023-04-04T21:58:26.702Z,102133.34
2023-04-04T22:00:53.135Z,102130.66
2023-04-04T22:03:19.555Z,102132.16
2023-04-04T22:05:46.048Z,102137.13
2023-04-04T22:08:12.466Z,102134.50
2023-04-04T22:10:46.211Z,102133.56
2023-04-04T22:13:17.062Z,102127.53
2023-04-04T22:15:46.960Z,102128.59
2023-04-04T22:18:17.294Z,102134.31
2023-04-04T22:20:47.848Z,102126.66
2023-04-04T22:23:17.618Z,102125.75
2023-04-04T22:25:44.025Z,102127.91
2023-04-04T22:28:10.429Z,102125.69
2023-04-04T22:30:39.039Z,102125.41
2023-04-04T22:33:05.899Z,102126.03
2023-04-04T22:35:32.995Z,102128.97
2023-04-04T22:38:00.947Z,102119.81
2023-04-04T22:40:28.554Z,102122.78
2023-04-04T22:42:55.511Z,102120.81
2023-04-04T22:45:22.936Z,102123.84
2023-04-04T22:47:49.894Z,102118.13
2023-04-04T22:50:22.737Z,102119.56
2023-04-04T22:52:49.321Z,102123.94
2023-04-04T22:55:18.030Z,102115.22
2023-04-04T22:57:44.432Z,102112.25
2023-04-04T23:00:12.161Z,102114.16
2023-04-04T23:02:39.840Z,102112.63
2023-04-04T23:05:08.120Z,102113.25
2023-04-04T23:07:36.048Z,102116.38
2023-04-04T23:10:03.638Z,102106.97
2023-04-04T23:12:30.097Z,102112.88
2023-04-04T23:14:58.705Z,102113.94
2023-04-04T23:17:25.587Z,102114.31
2023-04-04T23:19:51.979Z,102109.19
2023-04-04T23:22:18.398Z,102113.38
2023-04-04T23:24:44.832Z,102109.94
2023-04-04T23:27:12.399Z,102103.97
2023-04-04T23:29:38.791Z,102094.06
2023-04-04T23:32:05.450Z,102096.16
2023-04-04T23:34:31.863Z,102087.69
2023-04-04T23:36:58.267Z,102082.34
2023-04-04T23:39:24.653Z,102093.13
2023-04-04T23:41:51.147Z,102089.25
2023-04-04T23:44:17.693Z,102086.66
2023-04-04T23:46:44.559Z,102089.16
2023-04-04T23:49:11.995Z,102086.59
2023-04-04T23:51:39.503Z,102083.56
2023-04-04T23:54:07.865Z,102085.25
2023-04-04T23:56:35.097Z,102088.59
2023-04-04T23:59:01.924Z,102079.66
